createdAt,value
2018-08-18T00:01:54.146Z,100869
2018-08-18T00:04:22.991Z,100869
2018-08-18T00:06:51.833Z,100872
2018-08-18T00:09:20.676Z,100861
2018-08-18T00:11:49.533Z,100862
2018-08-18T00:14:18.368Z,100876
2018-08-18T00:16:47.970Z,100873
2018-08-18T00:19:16.817Z,100874
2018-08-18T00:21:45.653Z,100868
2018-08-18T00:24:15.230Z,100868
2018-08-18T00:26:44.066Z,100865
2018-08-18T00:29:12.929Z,100861
2018-08-18T00:31:41.785Z,100857
2018-08-18T00:34:10.677Z,100864
2018-08-18T00:36:39.475Z,100864
2018-08-18T00:39:08.310Z,100859
2018-08-18T00:41:37.163Z,100859
2018-08-18T00:44:06.594Z,100853
2018-08-18T00:46:35.435Z,100856
2018-08-18T00:49:04.277Z,100851
2018-08-18T00:51:33.862Z,100854
2018-08-18T00:54:02.738Z,100854
2018-08-18T00:56:31.570Z,100857
2018-08-18T00:59:00.416Z,100856
2018-08-18T01:01:29.271Z,100855
2018-08-18T01:03:58.102Z,100852
2018-08-18T01:06:27.545Z,100858
2018-08-18T01:08:56.384Z,100858
2018-08-18T01:11:25.360Z,100859
2018-08-18T01:13:54.120Z,100864
2018-08-18T01:16:22.889Z,100869
2018-08-18T01:18:51.735Z,100873
2018-08-18T01:21:20.594Z,100870
2018-08-18T01:23:49.425Z,100868
2018-08-18T01:26:18.262Z,100868
2018-08-18T01:28:47.105Z,100872
2018-08-18T01:31:15.942Z,100875
2018-08-18T01:33:44.784Z,100872
2018-08-18T01:36:13.621Z,100876
2018-08-18T01:38:42.461Z,100868
2018-08-18T01:41:13.187Z,100867
2018-08-18T01:43:42.076Z,100871
2018-08-18T01:46:10.871Z,100871
2018-08-18T01:48:39.697Z,100877
2018-08-18T01:51:08.578Z,100878
2018-08-18T01:53:37.439Z,100882
2018-08-18T01:56:06.265Z,100880
2018-08-18T01:58:35.854Z,100883
2018-08-18T02:01:04.694Z,100881
2018-08-18T02:03:33.527Z,100882
2018-08-18T02:06:02.367Z,100882
2018-08-18T02:08:31.211Z,100886
2018-08-18T02:11:00.040Z,100880
2018-08-18T02:13:28.883Z,100880
2018-08-18T02:15:57.717Z,100883
2018-08-18T02:18:26.552Z,100880
2018-08-18T02:20:55.401Z,100880
2018-08-18T02:23:24.239Z,100881
2018-08-18T02:25:53.083Z,100885
2018-08-18T02:28:21.938Z,100887
2018-08-18T02:30:50.785Z,100887
2018-08-18T02:33:19.618Z,100886
2018-08-18T02:35:48.456Z,100885
2018-08-18T02:38:17.288Z,100884
2018-08-18T02:40:46.136Z,100887
2018-08-18T02:43:14.970Z,100893
2018-08-18T02:45:44.555Z,100889
2018-08-18T02:48:13.403Z,100895
2018-08-18T02:50:42.239Z,100894
2018-08-18T02:53:11.091Z,100896
2018-08-18T02:55:39.998Z,100893
2018-08-18T02:58:08.841Z,100893
2018-08-18T03:00:37.686Z,100896
2018-08-18T03:03:06.526Z,100894
2018-08-18T03:05:35.382Z,100903
2018-08-18T03:08:04.964Z,100897
2018-08-18T03:10:33.843Z,100896
2018-08-18T03:13:02.681Z,100899
2018-08-18T03:15:31.523Z,100903
2018-08-18T03:18:00.360Z,100902
2018-08-18T03:20:29.936Z,100907
2018-08-18T03:22:58.779Z,100916
2018-08-18T03:25:27.624Z,100911
2018-08-18T03:27:57.209Z,100914
2018-08-18T03:30:26.063Z,100916
2018-08-18T03:32:54.918Z,100919
2018-08-18T03:35:24.508Z,100912
2018-08-18T03:37:53.365Z,100921
2018-08-18T03:40:22.223Z,100919
2018-08-18T03:42:51.099Z,100926
2018-08-18T03:45:19.912Z,100917
2018-08-18T03:47:48.781Z,100927
2018-08-18T03:50:18.364Z,100928
2018-08-18T03:52:47.194Z,100929
2018-08-18T03:55:16.042Z,100929
2018-08-18T03:57:45.647Z,100929
2018-08-18T04:00:14.508Z,100923
2018-08-18T04:02:43.360Z,100933
2018-08-18T04:05:12.218Z,100929
2018-08-18T04:07:41.100Z,100920
2018-08-18T04:10:10.706Z,100934
2018-08-18T04:12:39.563Z,100931
2018-08-18T04:15:08.454Z,100933
2018-08-18T04:17:37.330Z,100943
2018-08-18T04:20:06.180Z,100940
2018-08-18T04:22:35.758Z,100938
2018-08-18T04:25:04.640Z,100942
2018-08-18T04:27:33.465Z,100944
2018-08-18T04:30:02.316Z,100942
2018-08-18T04:32:31.149Z,100953
2018-08-18T04:35:00.741Z,100946
2018-08-18T04:37:29.579Z,100949
2018-08-18T04:42:42.787Z,100964
2018-08-18T04:45:12.399Z,100960
2018-08-18T04:47:41.256Z,100964
2018-08-18T04:50:10.104Z,100967
2018-08-18T04:52:38.942Z,100961
2018-08-18T04:55:07.800Z,100962
2018-08-18T04:57:36.648Z,100965
2018-08-18T05:00:06.228Z,100964
2018-08-18T05:02:35.813Z,100967
2018-08-18T05:05:04.699Z,100964
2018-08-18T05:07:33.510Z,100968
2018-08-18T05:10:02.351Z,100961
2018-08-18T05:12:31.200Z,100962
2018-08-18T05:15:00.036Z,100963
2018-08-18T05:17:28.876Z,100970
2018-08-18T05:19:57.721Z,100975
2018-08-18T05:22:26.566Z,100975
2018-08-18T05:24:55.429Z,100974
2018-08-18T05:27:24.258Z,100976
2018-08-18T05:29:53.116Z,100975
2018-08-18T05:32:21.949Z,100975
2018-08-18T05:34:50.785Z,100971
2018-08-18T05:37:20.375Z,100985
2018-08-18T05:39:49.214Z,100973
2018-08-18T05:42:18.049Z,100984
2018-08-18T05:44:46.888Z,100978
2018-08-18T05:47:15.729Z,100973
2018-08-18T05:49:44.577Z,100971
2018-08-18T05:52:13.418Z,100975
2018-08-18T05:54:42.256Z,100979
2018-08-18T05:57:11.110Z,100973
2018-08-18T05:59:39.975Z,100978
2018-08-18T06:02:08.834Z,100977
2018-08-18T06:04:37.679Z,100977
2018-08-18T06:07:06.517Z,100981
2018-08-18T06:09:36.376Z,100980
2018-08-18T06:12:05.732Z,100981
2018-08-18T06:14:34.552Z,100985
2018-08-18T06:17:03.424Z,100991
2018-08-18T06:19:32.257Z,100992
2018-08-18T06:22:01.090Z,101000
2018-08-18T06:24:29.934Z,101005
2018-08-18T06:26:58.781Z,101014
2018-08-18T06:29:28.370Z,101014
2018-08-18T06:31:57.250Z,101015
2018-08-18T06:34:26.129Z,101011
2018-08-18T06:36:54.927Z,101015
2018-08-18T06:39:24.555Z,101018
2018-08-18T06:41:54.199Z,101023
2018-08-18T06:44:23.008Z,101015
2018-08-18T06:46:51.852Z,101025
2018-08-18T06:49:20.688Z,101030
2018-08-18T06:51:49.530Z,101032
2018-08-18T06:54:18.401Z,101035
2018-08-18T06:56:47.275Z,101036
2018-08-18T06:59:16.094Z,101033
2018-08-18T07:01:44.940Z,101033
2018-08-18T07:04:13.786Z,101035
2018-08-18T07:06:42.649Z,101036
2018-08-18T07:09:11.516Z,101036
2018-08-18T07:11:41.436Z,101040
2018-08-18T07:14:09.915Z,101036
2018-08-18T07:16:39.491Z,101038
2018-08-18T07:19:08.346Z,101038
2018-08-18T07:21:37.937Z,101043
2018-08-18T07:24:06.790Z,101047
2018-08-18T07:26:35.633Z,101048
2018-08-18T07:29:04.557Z,101040
2018-08-18T07:31:33.327Z,101049
2018-08-18T07:34:02.174Z,101049
2018-08-18T07:36:31.018Z,101055
2018-08-18T07:38:59.889Z,101049
2018-08-18T07:41:28.724Z,101054
2018-08-18T07:43:57.552Z,101048
2018-08-18T07:46:26.452Z,101057
2018-08-18T07:48:55.258Z,101062
2018-08-18T07:51:24.102Z,101057
2018-08-18T07:53:52.943Z,101064
2018-08-18T07:56:21.782Z,101062
2018-08-18T07:58:50.635Z,101061
2018-08-18T08:01:19.480Z,101065
2018-08-18T08:03:48.318Z,101060
2018-08-18T08:06:17.156Z,101068
2018-08-18T08:08:46.749Z,101069
2018-08-18T08:11:15.681Z,101075
2018-08-18T08:13:44.526Z,101076
2018-08-18T08:16:13.376Z,101062
2018-08-18T08:18:42.228Z,101068
2018-08-18T08:21:11.078Z,101073
2018-08-18T08:23:39.930Z,101072
2018-08-18T08:26:08.811Z,101071
2018-08-18T08:28:37.654Z,101072
2018-08-18T08:31:06.493Z,101070
2018-08-18T08:33:35.325Z,101066
2018-08-18T08:36:04.169Z,101070
2018-08-18T08:38:33.754Z,101066
2018-08-18T08:41:02.621Z,101063
2018-08-18T08:43:31.466Z,101060
2018-08-18T08:46:01.048Z,101062
2018-08-18T08:48:29.913Z,101066
2018-08-18T08:50:58.766Z,101057
2018-08-18T08:53:27.610Z,101070
2018-08-18T08:55:56.475Z,101059
2018-08-18T08:58:25.312Z,101062
2018-08-18T09:00:54.904Z,101057
2018-08-18T09:03:24.515Z,101048
2018-08-18T09:05:53.371Z,101055
2018-08-18T09:08:22.211Z,101069
2018-08-18T09:10:51.091Z,101067
2018-08-18T09:13:19.953Z,101064
2018-08-18T09:15:48.798Z,101050
2018-08-18T09:18:17.641Z,101054
2018-08-18T09:20:46.488Z,101048
2018-08-18T09:23:15.337Z,101051
2018-08-18T09:25:44.185Z,101053
2018-08-18T09:28:13.033Z,101053
2018-08-18T09:30:41.882Z,101059
2018-08-18T09:33:10.736Z,101052
2018-08-18T09:35:39.584Z,101053
2018-08-18T09:38:08.433Z,101046
2018-08-18T09:40:37.264Z,101051
2018-08-18T09:43:06.103Z,101047
2018-08-18T09:45:34.959Z,101045
2018-08-18T09:48:04.610Z,101042
2018-08-18T09:50:34.147Z,101043
2018-08-18T09:53:02.994Z,101048
2018-08-18T09:55:31.839Z,101049
2018-08-18T09:58:01.436Z,101048
2018-08-18T10:00:30.281Z,101039
2018-08-18T10:02:59.145Z,101044
2018-08-18T10:05:27.982Z,101041
2018-08-18T10:07:56.815Z,101048
2018-08-18T10:10:26.395Z,101050
2018-08-18T10:12:55.267Z,101047
2018-08-18T10:15:24.192Z,101043
2018-08-18T10:17:52.945Z,101040
2018-08-18T10:20:21.783Z,101049
2018-08-18T10:22:50.632Z,101049
2018-08-18T10:25:19.476Z,101044
2018-08-18T10:27:48.348Z,101039
2018-08-18T10:30:17.204Z,101043
2018-08-18T10:35:27.307Z,101042
2018-08-18T10:37:56.173Z,101042
2018-08-18T10:40:25.049Z,101041
2018-08-18T10:42:53.886Z,101032
2018-08-18T10:45:22.741Z,101034
2018-08-18T10:47:51.611Z,101040
2018-08-18T10:50:20.420Z,101038
2018-08-18T10:52:54.895Z,101033
2018-08-18T10:55:23.740Z,101029
2018-08-18T10:57:55.546Z,101033
2018-08-18T11:00:29.623Z,101028
2018-08-18T11:02:58.863Z,101034
2018-08-18T11:05:26.512Z,101028
2018-08-18T11:07:55.366Z,101029
2018-08-18T11:10:25.300Z,101028
2018-08-18T11:12:56.633Z,101025
2018-08-18T11:15:24.203Z,101025
2018-08-18T11:17:53.054Z,101026
2018-08-18T11:20:21.912Z,101027
2018-08-18T11:22:50.769Z,101016
2018-08-18T11:25:20.432Z,101021
2018-08-18T11:27:49.266Z,101023
2018-08-18T11:30:18.112Z,101022
2018-08-18T11:32:46.948Z,101019
2018-08-18T11:35:16.557Z,101021
2018-08-18T11:37:45.361Z,101024
2018-08-18T11:40:14.955Z,101023
2018-08-18T11:42:43.819Z,101026
2018-08-18T11:45:12.659Z,101029
2018-08-18T11:47:41.500Z,101025
2018-08-18T11:50:10.347Z,101020
2018-08-18T11:52:39.186Z,101025
2018-08-18T11:55:08.034Z,101023
2018-08-18T11:57:36.884Z,101017
2018-08-18T12:00:06.367Z,101013
2018-08-18T12:02:35.214Z,101000
2018-08-18T12:05:04.066Z,101003
2018-08-18T12:07:32.906Z,101004
2018-08-18T12:10:01.788Z,101001
2018-08-18T12:12:30.626Z,101001
2018-08-18T12:14:59.462Z,100995
2018-08-18T12:17:29.044Z,101002
2018-08-18T12:19:57.894Z,101000
2018-08-18T12:22:26.989Z,100999
2018-08-18T12:24:56.340Z,100990
2018-08-18T12:27:25.289Z,100985
2018-08-18T12:29:54.227Z,100985
2018-08-18T12:32:22.886Z,100981
2018-08-18T12:34:51.747Z,100985
2018-08-18T12:37:20.604Z,100981
2018-08-18T12:39:49.422Z,100969
2018-08-18T12:42:18.288Z,100974
2018-08-18T12:44:47.882Z,100970
2018-08-18T12:47:16.735Z,100972
2018-08-18T12:49:45.607Z,100964
2018-08-18T12:52:14.413Z,100960
2018-08-18T12:54:43.252Z,100962
2018-08-18T12:57:12.103Z,100958
2018-08-18T12:59:40.948Z,100962
2018-08-18T13:02:09.785Z,100952
2018-08-18T13:04:38.627Z,100951
2018-08-18T13:07:08.215Z,100944
2018-08-18T13:09:37.071Z,100933
2018-08-18T13:12:05.960Z,100947
2018-08-18T13:14:34.764Z,100940
2018-08-18T13:17:03.637Z,100942
2018-08-18T13:19:32.444Z,100939
2018-08-18T13:22:01.485Z,100930
2018-08-18T13:24:30.323Z,100930
2018-08-18T13:26:59.158Z,100931
2018-08-18T13:29:28.011Z,100930
2018-08-18T13:31:56.846Z,100920
2018-08-18T13:34:25.711Z,100919
2018-08-18T13:36:54.553Z,100916
2018-08-18T13:39:23.398Z,100921
2018-08-18T13:41:53.018Z,100919
2018-08-18T13:44:21.863Z,100918
2018-08-18T13:46:50.713Z,100911
2018-08-18T13:49:19.547Z,100911
2018-08-18T13:51:48.432Z,100911
2018-08-18T13:54:17.304Z,100910
2018-08-18T13:56:45.366Z,100908
2018-08-18T13:59:14.202Z,100901
2018-08-18T14:01:43.045Z,100902
2018-08-18T14:04:11.895Z,100896
2018-08-18T14:06:40.750Z,100900
2018-08-18T14:09:09.586Z,100895
2018-08-18T14:11:38.464Z,100889
2018-08-18T14:14:07.305Z,100890
2018-08-18T14:16:36.140Z,100890
2018-08-18T14:19:04.977Z,100883
2018-08-18T14:21:33.830Z,100884
2018-08-18T14:24:03.259Z,100885
2018-08-18T14:26:32.851Z,100875
2018-08-18T14:29:01.698Z,100884
2018-08-18T14:31:30.547Z,100882
2018-08-18T14:33:59.454Z,100873
2018-08-18T14:36:28.252Z,100878
2018-08-18T14:38:57.327Z,100875
2018-08-18T14:41:26.532Z,100877
2018-08-18T14:43:55.384Z,100871
2018-08-18T14:46:24.375Z,100877
2018-08-18T14:48:53.074Z,100872
2018-08-18T14:51:21.918Z,100873
2018-08-18T14:53:50.761Z,100868
2018-08-18T14:56:20.355Z,100879
2018-08-18T14:58:50.023Z,100864
2018-08-18T15:01:18.831Z,100869
2018-08-18T15:03:47.666Z,100872
2018-08-18T15:06:16.514Z,100870
2018-08-18T15:08:45.382Z,100865
2018-08-18T15:11:14.199Z,100862
2018-08-18T15:13:43.054Z,100862
2018-08-18T15:16:11.929Z,100863
2018-08-18T15:18:40.782Z,100868
2018-08-18T15:21:10.454Z,100858
2018-08-18T15:23:39.240Z,100864
2018-08-18T15:26:08.097Z,100865
2018-08-18T15:28:36.937Z,100867
2018-08-18T15:31:05.792Z,100860
2018-08-18T15:33:34.631Z,100870
2018-08-18T15:36:03.524Z,100860
2018-08-18T15:38:32.346Z,100851
2018-08-18T15:41:01.191Z,100851
2018-08-18T15:43:30.076Z,100849
2018-08-18T15:45:58.936Z,100850
2018-08-18T15:48:27.784Z,100851
2018-08-18T15:50:57.382Z,100839
2018-08-18T15:53:26.220Z,100843
2018-08-18T15:55:55.059Z,100844
2018-08-18T15:58:23.923Z,100834
2018-08-18T16:00:52.792Z,100834
2018-08-18T16:03:21.636Z,100835
2018-08-18T16:05:50.467Z,100833
2018-08-18T16:08:19.310Z,100835
2018-08-18T16:10:48.157Z,100831
2018-08-18T16:13:16.995Z,100832
2018-08-18T16:15:46.598Z,100830
2018-08-18T16:18:16.196Z,100819
2018-08-18T16:20:45.301Z,100834
2018-08-18T16:23:13.903Z,100822
2018-08-18T16:25:42.733Z,100823
2018-08-18T16:28:11.589Z,100818
2018-08-18T16:30:40.430Z,100818
2018-08-18T16:33:09.293Z,100820
2018-08-18T16:35:38.141Z,100818
2018-08-18T16:38:06.997Z,100819
2018-08-18T16:40:35.859Z,100826
2018-08-18T16:43:04.828Z,100821
2018-08-18T16:45:33.557Z,100824
2018-08-18T16:48:02.429Z,100828
2018-08-18T16:50:31.256Z,100822
2018-08-18T16:53:00.127Z,100815
2018-08-18T16:55:28.975Z,100827
2018-08-18T16:57:58.588Z,100822
2018-08-18T17:00:27.433Z,100824
2018-08-18T17:02:56.275Z,100823
2018-08-18T17:05:25.173Z,100821
2018-08-18T17:07:54.034Z,100828
2018-08-18T17:10:23.612Z,100835
2018-08-18T17:12:52.472Z,100824
2018-08-18T17:15:21.318Z,100827
2018-08-18T17:17:50.181Z,100832
2018-08-18T17:20:19.032Z,100830
2018-08-18T17:22:47.880Z,100826
2018-08-18T17:25:16.733Z,100839
2018-08-18T17:27:45.583Z,100844
2018-08-18T17:30:14.481Z,100837
2018-08-18T17:32:43.324Z,100844
2018-08-18T17:35:12.922Z,100843
2018-08-18T17:37:41.892Z,100839
2018-08-18T17:40:10.750Z,100838
2018-08-18T17:42:39.609Z,100846
2018-08-18T17:45:09.223Z,100846
2018-08-18T17:47:38.097Z,100837
2018-08-18T17:50:06.964Z,100846
2018-08-18T17:52:35.885Z,100847
2018-08-18T17:55:05.533Z,100844
2018-08-18T17:57:34.403Z,100847
2018-08-18T18:00:03.266Z,100852
2018-08-18T18:02:32.126Z,100855
2018-08-18T18:05:00.975Z,100865
2018-08-18T18:07:30.565Z,100866
2018-08-18T18:09:59.433Z,100867
2018-08-18T18:12:28.287Z,100872
2018-08-18T18:14:57.126Z,100876
2018-08-18T18:17:25.976Z,100880
2018-08-18T18:19:54.808Z,100877
2018-08-18T18:22:23.665Z,100879
2018-08-18T18:24:52.513Z,100881
2018-08-18T18:27:22.118Z,100883
2018-08-18T18:29:50.980Z,100884
2018-08-18T18:32:19.855Z,100878
2018-08-18T18:34:48.671Z,100879
2018-08-18T18:37:17.548Z,100878
2018-08-18T18:39:47.078Z,100890
2018-08-18T18:42:15.362Z,100893
2018-08-18T18:44:44.272Z,100890
2018-08-18T18:47:13.175Z,100888
2018-08-18T18:49:42.020Z,100899
2018-08-18T18:52:10.908Z,100901
2018-08-18T18:54:47.366Z,100899
2018-08-18T18:57:16.104Z,100913
2018-08-18T18:59:44.951Z,100920
2018-08-18T19:02:13.811Z,100921
2018-08-18T19:04:42.698Z,100922
2018-08-18T19:07:12.248Z,100927
2018-08-18T19:09:41.087Z,100926
2018-08-18T19:12:09.948Z,100927
2018-08-18T19:14:39.769Z,100932
2018-08-18T19:17:08.384Z,100932
2018-08-18T19:19:37.233Z,100933
2018-08-18T19:22:06.633Z,100938
2018-08-18T19:24:35.448Z,100947
2018-08-18T19:27:05.038Z,100946
2018-08-18T19:29:33.913Z,100949
2018-08-18T19:32:02.741Z,100947
2018-08-18T19:34:32.417Z,100955
2018-08-18T19:37:01.935Z,100955
2018-08-18T19:39:30.783Z,100946
2018-08-18T19:41:59.654Z,100961
2018-08-18T19:44:28.500Z,100964
2018-08-18T19:46:57.350Z,100969
2018-08-18T19:49:26.225Z,100970
2018-08-18T19:51:55.125Z,100971
2018-08-18T19:54:24.677Z,100967
2018-08-18T19:56:53.513Z,100968
2018-08-18T19:59:22.358Z,100977
2018-08-18T20:01:51.224Z,100980
2018-08-18T20:04:20.075Z,100985
2018-08-18T20:06:48.955Z,100983
2018-08-18T20:09:17.798Z,100985
2018-08-18T20:11:46.665Z,100985
2018-08-18T20:14:15.514Z,100986
2018-08-18T20:16:45.118Z,100995
2018-08-18T20:19:13.964Z,100991
2018-08-18T20:21:42.847Z,100999
2018-08-18T20:24:11.668Z,100999
2018-08-18T20:26:40.505Z,101004
2018-08-18T20:29:09.353Z,100989
2018-08-18T20:31:38.198Z,100998
2018-08-18T20:34:07.043Z,100994
2018-08-18T20:36:35.944Z,100995
2018-08-18T20:39:04.839Z,101000
2018-08-18T20:41:34.449Z,101006
2018-08-18T20:44:04.044Z,101010
2018-08-18T20:46:33.651Z,101001
2018-08-18T20:49:02.529Z,101008
2018-08-18T20:51:31.371Z,101008
2018-08-18T20:54:00.240Z,101005
2018-08-18T20:56:29.074Z,101013
2018-08-18T20:58:57.923Z,101007
2018-08-18T21:01:27.522Z,101013
2018-08-18T21:03:56.398Z,101010
2018-08-18T21:06:25.253Z,101015
2018-08-18T21:08:54.100Z,101014
2018-08-18T21:11:22.966Z,101023
2018-08-18T21:13:51.788Z,101018
2018-08-18T21:16:20.626Z,101022
2018-08-18T21:18:49.481Z,101022
2018-08-18T21:21:18.322Z,101027
2018-08-18T21:23:47.164Z,101029
2018-08-18T21:26:16.750Z,101028
2018-08-18T21:28:45.593Z,101027
2018-08-18T21:31:14.441Z,101017
2018-08-18T21:33:43.283Z,101021
2018-08-18T21:36:12.159Z,101026
2018-08-18T21:38:41.001Z,101027
2018-08-18T21:41:09.864Z,101021
2018-08-18T21:43:38.711Z,101024
2018-08-18T21:46:08.331Z,101026
2018-08-18T21:48:37.196Z,101018
2018-08-18T21:51:06.039Z,101022
2018-08-18T21:53:34.885Z,101024
2018-08-18T21:56:03.718Z,101027
2018-08-18T21:58:32.566Z,101022
2018-08-18T22:01:02.150Z,101032
2018-08-18T22:03:31.031Z,101029
2018-08-18T22:05:59.863Z,101036
2018-08-18T22:08:28.694Z,101032
2018-08-18T22:10:57.612Z,101037
2018-08-18T22:13:27.138Z,101033
2018-08-18T22:15:56.732Z,101026
2018-08-18T22:18:25.573Z,101027
2018-08-18T22:20:54.432Z,101024
2018-08-18T22:23:23.273Z,101031
2018-08-18T22:25:52.107Z,101027
2018-08-18T22:28:20.955Z,101030
2018-08-18T22:30:49.796Z,101025
2018-08-18T22:33:18.814Z,101024
2018-08-18T22:35:47.480Z,101024
2018-08-18T22:38:16.312Z,101023
2018-08-18T22:40:45.150Z,101015
2018-08-18T22:43:13.996Z,101010
2018-08-18T22:45:42.836Z,101016
2018-08-18T22:48:11.673Z,101020
2018-08-18T22:50:40.524Z,101018
2018-08-18T22:53:09.383Z,101025
2018-08-18T22:55:38.954Z,101008
2018-08-18T22:58:07.786Z,101015
2018-08-18T23:00:36.629Z,101008
2018-08-18T23:03:05.464Z,101011
2018-08-18T23:05:34.301Z,101012
2018-08-18T23:08:03.163Z,101013
2018-08-18T23:10:32.026Z,101014
2018-08-18T23:13:01.608Z,101014
2018-08-18T23:15:30.459Z,101018
2018-08-18T23:17:59.294Z,101007
2018-08-18T23:20:28.249Z,101003
2018-08-18T23:22:56.994Z,101016
2018-08-18T23:25:26.573Z,101011
2018-08-18T23:27:55.416Z,101009
2018-08-18T23:30:24.250Z,101015
2018-08-18T23:32:53.089Z,101013
2018-08-18T23:35:21.988Z,101013
2018-08-18T23:37:51.522Z,101011
2018-08-18T23:40:20.373Z,101019
2018-08-18T23:42:49.206Z,101011
2018-08-18T23:45:18.041Z,101002
2018-08-18T23:47:46.883Z,100998
2018-08-18T23:50:15.724Z,101007
2018-08-18T23:52:44.594Z,101004
2018-08-18T23:55:14.178Z,101006
2018-08-18T23:57:43.761Z,100999
